Etusivu
METAR-TAF:

METAR-TAF

Lentoasemat :

Koror, Babeldaob, Palau

Leveyspiiri: 07-22N, Pituuspiiri: 134-32E, korkeus merenpinnasta: 54 m

Tämänhetkinen sää

Tämä raportti tehtiin 34 minuuttia sitten, kello 14.50 UTC
Tuuli 4 kn koillisesta
Lämpötila 26°C
Kosteus 89%
Ilmanpaine 1010 hPa
Näkyvyys: 22.5 km
Hajanaisia pilviä 1500 ft:n korkeudessa
Hajonneita pilviä 11000 ft:n korkeudessa
Hajonneita pilviä 29000 ft:n korkeudessa

METAR: PTRO 271450Z 05004KT 14SM SCT015 BKN110 BKN290 26/24 A2982

Aika: 00:24 (15:24 UTC)

Sääennuste

Tämä raportti tehtiin 3 tuntia ja 48 minuuttia sitten, kello 11.36 UTC
Ennuste voimassa 27. päivästä klo 12 UTC - 28. päivään klo 12 UTC
Tuuli 10 kn idästä/koillisesta
Näkyvyys: 10 km
Hajanaisia pilviä 1700 ft:n korkeudessa

TAF: PTRO 271136Z 2712/2812 06010KT P6SM SCT017

Säähavainnot ja -ennusteet yli 4000 lentoasemalta (METAR- ja TAF-raportit).

Käytössä olevat sääasemat on merkitty karttaan keltaisilla ja punaisilla pisteillä.

Aseta hiiri pisteen päälle nähdäksesi sääaseman nimen.

Klikkaa sitten nähdäksesi säähavainnot ja -ennusteet.

Kartan vaihtaminen: klikkaa mustalla rastilla varustettuja vihreitä pisteitä, niin voit zoomata sisään; viivalla varustettua vihreää pistettä, niin voit zoomata ulos tai vihreitä nuolia, niin pääset viereisille kartoille.


METAR-TAF: